createdAt,value
2022-11-01T00:02:01.237Z,13.09
2022-11-01T00:04:28.534Z,13.08
2022-11-01T00:06:55.858Z,13.06
2022-11-01T00:09:23.243Z,13.04
2022-11-01T00:11:50.899Z,13.06
2022-11-01T00:14:20.513Z,13.04
2022-11-01T00:16:48.379Z,13.02
2022-11-01T00:19:15.755Z,13.09
2022-11-01T00:21:43.105Z,13.12
2022-11-01T00:24:10.561Z,13.13
2022-11-01T00:26:38.011Z,13.19
2022-11-01T00:29:05.664Z,13.21
2022-11-01T00:31:34.337Z,13.19
2022-11-01T00:34:01.801Z,13.24
2022-11-01T00:36:29.381Z,13.28
2022-11-01T00:38:56.575Z,13.31
2022-11-01T00:41:23.816Z,13.29
2022-11-01T00:43:51.003Z,13.27
2022-11-01T00:46:18.539Z,13.28
2022-11-01T00:48:47.069Z,13.32
2022-11-01T00:51:14.275Z,13.27
2022-11-01T00:53:41.492Z,13.17
2022-11-01T00:56:08.817Z,13.18
2022-11-01T00:58:36.000Z,13.21
2022-11-01T01:01:03.400Z,13.21
2022-11-01T01:03:30.744Z,13.19
2022-11-01T01:05:59.549Z,13.22
2022-11-01T01:08:27.588Z,13.21
2022-11-01T01:10:54.733Z,13.23
2022-11-01T01:13:22.523Z,13.26
2022-11-01T01:15:49.739Z,13.25
2022-11-01T01:18:17.546Z,13.22
2022-11-01T01:20:44.814Z,13.19
2022-11-01T01:23:13.445Z,13.19
2022-11-01T01:25:41.347Z,13.19
2022-11-01T01:28:08.809Z,13.17
2022-11-01T01:30:40.200Z,13.19
2022-11-01T01:33:07.913Z,13.19
2022-11-01T01:35:35.327Z,13.21
2022-11-01T01:38:02.849Z,13.19
2022-11-01T01:40:32.123Z,13.20
2022-11-01T01:42:59.624Z,13.22
2022-11-01T01:45:34.699Z,13.22
2022-11-01T01:48:09.697Z,13.25
2022-11-01T01:50:41.725Z,13.28
2022-11-01T01:53:14.584Z,13.25
2022-11-01T01:55:48.261Z,13.25
2022-11-01T01:58:18.758Z,13.28
2022-11-01T02:00:46.210Z,13.30
2022-11-01T02:03:14.777Z,13.29
2022-11-01T02:05:47.260Z,13.30
2022-11-01T02:08:15.946Z,13.29
2022-11-01T02:10:45.037Z,13.28
2022-11-01T02:13:13.953Z,13.29
2022-11-01T02:15:55.820Z,13.30
2022-11-01T02:18:34.666Z,13.32
2022-11-01T02:21:37.916Z,13.35
2022-11-01T02:24:41.850Z,13.34
2022-11-01T02:27:14.884Z,13.37
2022-11-01T02:30:04.909Z,13.38
2022-11-01T02:32:44.681Z,13.39
2022-11-01T02:35:18.185Z,13.38
2022-11-01T02:37:52.956Z,13.34
2022-11-01T02:40:27.513Z,13.34
2022-11-01T02:43:00.142Z,13.36
2022-11-01T02:45:34.238Z,13.36
2022-11-01T02:48:04.359Z,13.38
2022-11-01T02:50:36.464Z,13.36
2022-11-01T02:53:04.501Z,13.35
2022-11-01T02:55:32.021Z,13.34
2022-11-01T02:58:02.078Z,13.32
2022-11-01T03:00:31.874Z,13.32
2022-11-01T03:03:16.220Z,13.36
2022-11-01T03:06:02.612Z,13.34
2022-11-01T03:08:32.958Z,13.36
2022-11-01T03:11:07.060Z,13.33
2022-11-01T03:13:57.747Z,13.35
2022-11-01T03:16:30.807Z,13.31
2022-11-01T03:19:06.196Z,13.27
2022-11-01T03:21:38.870Z,13.29
2022-11-01T03:24:17.260Z,13.25
2022-11-01T03:26:49.257Z,13.26
2022-11-01T03:29:20.646Z,13.26
2022-11-01T03:31:50.138Z,13.32
2022-11-01T03:34:20.022Z,13.28
2022-11-01T03:36:51.566Z,13.32
2022-11-01T03:39:22.604Z,13.31
2022-11-01T03:41:54.154Z,13.33
2022-11-01T03:44:22.064Z,13.33
2022-11-01T03:46:50.365Z,13.36
2022-11-01T03:49:19.916Z,13.37
2022-11-01T03:51:48.941Z,13.38
2022-11-01T03:54:16.363Z,13.44
2022-11-01T03:56:43.525Z,13.43
2022-11-01T03:59:10.947Z,13.44
2022-11-01T04:01:38.361Z,13.43
2022-11-01T04:04:05.812Z,13.47
2022-11-01T04:06:34.454Z,13.45
2022-11-01T04:09:01.792Z,13.43
2022-11-01T04:11:29.064Z,13.42
2022-11-01T04:13:56.308Z,13.46
2022-11-01T04:16:23.676Z,13.45
2022-11-01T04:18:50.971Z,13.45
2022-11-01T04:21:20.537Z,13.43
2022-11-01T04:23:49.406Z,13.46
2022-11-01T04:26:18.836Z,13.46
2022-11-01T04:28:46.274Z,13.49
2022-11-01T04:31:13.458Z,13.47
2022-11-01T04:33:40.631Z,13.50
2022-11-01T04:36:08.785Z,13.48
2022-11-01T04:38:35.988Z,13.51
2022-11-01T04:41:04.736Z,13.51
2022-11-01T04:43:31.962Z,13.52
2022-11-01T04:45:59.157Z,13.50
2022-11-01T04:48:26.448Z,13.51
2022-11-01T04:50:53.955Z,13.55
2022-11-01T04:53:21.134Z,13.54
2022-11-01T04:55:48.350Z,13.58
2022-11-01T04:58:16.884Z,13.61
2022-11-01T05:00:44.276Z,13.57
2022-11-01T05:03:11.788Z,13.57
2022-11-01T05:05:39.471Z,13.56
2022-11-01T05:08:07.970Z,13.58
2022-11-01T05:10:37.290Z,13.59
2022-11-01T05:13:05.584Z,13.55
2022-11-01T05:15:36.902Z,13.56
2022-11-01T05:18:07.132Z,13.55
2022-11-01T05:20:34.394Z,13.53
2022-11-01T05:23:03.564Z,13.49
2022-11-01T05:25:34.070Z,13.45
2022-11-01T05:28:06.679Z,13.43
2022-11-01T05:30:36.525Z,13.39
2022-11-01T05:33:06.005Z,13.38
2022-11-01T05:35:35.040Z,13.31
2022-11-01T05:38:03.910Z,13.24
2022-11-01T05:40:31.793Z,13.26
2022-11-01T05:42:59.424Z,13.22
2022-11-01T05:45:26.864Z,13.19
2022-11-01T05:47:55.538Z,13.18
2022-11-01T05:50:22.718Z,13.23
2022-11-01T05:52:49.901Z,13.24
2022-11-01T05:55:17.452Z,13.29
2022-11-01T05:57:44.815Z,13.33
2022-11-01T06:00:12.684Z,13.34
2022-11-01T06:02:39.949Z,13.36
2022-11-01T06:05:09.332Z,13.38
2022-11-01T06:07:36.932Z,13.34
2022-11-01T06:10:05.313Z,13.33
2022-11-01T06:12:32.582Z,13.28
2022-11-01T06:14:59.824Z,13.22
2022-11-01T06:17:27.098Z,13.21
2022-11-01T06:19:54.320Z,13.17
2022-11-01T06:22:22.896Z,13.11
2022-11-01T06:24:50.078Z,13.13
2022-11-01T06:27:17.377Z,13.05
2022-11-01T06:29:44.623Z,13.10
2022-11-01T06:32:11.832Z,13.07
2022-11-01T06:34:42.316Z,13.12
2022-11-01T06:37:12.172Z,13.17
2022-11-01T06:39:40.780Z,13.19
2022-11-01T06:42:09.124Z,13.25
2022-11-01T06:44:36.295Z,13.30
2022-11-01T06:47:03.615Z,13.34
2022-11-01T06:49:30.820Z,13.39
2022-11-01T06:51:58.201Z,13.46
2022-11-01T06:54:25.515Z,13.45
2022-11-01T06:56:54.136Z,13.52
2022-11-01T06:59:21.357Z,13.60
2022-11-01T07:01:48.722Z,13.61
2022-11-01T07:04:15.986Z,13.68
2022-11-01T07:06:43.527Z,13.71
2022-11-01T07:09:11.065Z,13.79
2022-11-01T07:11:38.268Z,13.90
2022-11-01T07:14:07.032Z,14.01
2022-11-01T07:16:34.189Z,14.15
2022-11-01T07:19:01.475Z,14.29
2022-11-01T07:21:28.771Z,14.33
2022-11-01T07:23:56.112Z,14.36
2022-11-01T07:26:23.435Z,14.46
2022-11-01T07:28:50.814Z,14.59
2022-11-01T07:31:19.397Z,14.67
2022-11-01T07:33:46.607Z,14.83
2022-11-01T07:36:13.989Z,14.92
2022-11-01T07:38:41.185Z,14.95
2022-11-01T07:41:08.404Z,15.02
2022-11-01T07:43:35.657Z,15.08
2022-11-01T07:46:02.859Z,15.20
2022-11-01T07:48:31.493Z,15.27
2022-11-01T07:50:59.253Z,15.33
2022-11-01T07:53:26.536Z,15.43
2022-11-01T07:55:53.772Z,15.56
2022-11-01T07:58:20.936Z,15.58
2022-11-01T08:00:48.295Z,15.54
2022-11-01T08:03:17.354Z,15.70
2022-11-01T08:05:46.979Z,15.75
2022-11-01T08:08:15.327Z,15.76
2022-11-01T08:10:42.737Z,15.84
2022-11-01T08:13:16.123Z,15.90
2022-11-01T08:15:43.872Z,15.93
2022-11-01T08:18:11.652Z,16.00
2022-11-01T08:20:39.316Z,16.01
2022-11-01T08:23:08.598Z,16.04
2022-11-01T08:25:36.263Z,16.05
2022-11-01T08:28:04.367Z,16.05
2022-11-01T08:30:32.250Z,16.16
2022-11-01T08:33:00.762Z,16.12
2022-11-01T08:35:28.655Z,16.28
2022-11-01T08:37:56.119Z,16.25
2022-11-01T08:40:26.133Z,16.40
2022-11-01T08:42:53.449Z,16.48
2022-11-01T08:45:20.897Z,16.44
2022-11-01T08:47:48.080Z,16.61
2022-11-01T08:50:17.142Z,16.52
2022-11-01T08:52:44.431Z,16.53
2022-11-01T08:55:11.703Z,16.54
2022-11-01T08:57:40.285Z,16.57
2022-11-01T09:00:08.567Z,16.59
2022-11-01T09:02:36.171Z,16.68
2022-11-01T09:05:04.292Z,16.68
2022-11-01T09:07:33.116Z,16.62
2022-11-01T09:10:00.336Z,16.57
2022-11-01T09:12:27.929Z,16.54
2022-11-01T09:14:56.569Z,16.51
2022-11-01T09:17:23.852Z,16.49
2022-11-01T09:19:51.227Z,16.44
2022-11-01T09:22:18.448Z,16.50
2022-11-01T09:24:45.669Z,16.50
2022-11-01T09:27:13.001Z,16.52
2022-11-01T09:29:40.279Z,16.41
2022-11-01T09:32:08.856Z,16.40
2022-11-01T09:34:36.052Z,16.38
2022-11-01T09:37:03.387Z,16.38
2022-11-01T09:39:30.689Z,16.36
2022-11-01T09:42:01.539Z,16.37
2022-11-01T09:44:32.011Z,16.45
2022-11-01T09:47:05.139Z,16.45
2022-11-01T09:49:38.247Z,16.56
2022-11-01T09:52:06.227Z,16.83
2022-11-01T09:54:33.707Z,17.45
2022-11-01T09:57:11.793Z,18.21
2022-11-01T09:59:43.552Z,18.12
2022-11-01T10:02:38.716Z,18.46
2022-11-01T10:05:18.957Z,18.38
2022-11-01T10:08:01.003Z,18.41
2022-11-01T10:10:37.774Z,18.71
2022-11-01T10:13:16.135Z,18.40
2022-11-01T10:15:54.988Z,18.78
2022-11-01T10:18:26.988Z,18.25
2022-11-01T10:20:58.072Z,18.70
2022-11-01T10:23:42.601Z,17.79
2022-11-01T10:26:16.160Z,18.12
2022-11-01T10:28:51.669Z,18.02
2022-11-01T10:31:23.183Z,18.01
2022-11-01T10:33:56.792Z,18.00
2022-11-01T10:36:28.724Z,18.28
2022-11-01T10:41:52.408Z,18.48
2022-11-01T10:44:26.379Z,18.67
2022-11-01T10:46:55.333Z,18.56
2022-11-01T10:49:35.065Z,18.54
2022-11-01T10:52:20.242Z,18.82
2022-11-01T10:54:51.343Z,18.75
2022-11-01T10:57:30.154Z,19.00
2022-11-01T11:00:01.560Z,18.62
2022-11-01T11:02:34.681Z,18.37
2022-11-01T11:05:01.914Z,18.22
2022-11-01T11:07:31.983Z,18.75
2022-11-01T11:12:33.825Z,19.41
2022-11-01T11:15:12.336Z,19.09
2022-11-01T11:17:42.076Z,19.17
2022-11-01T11:20:10.982Z,19.53
2022-11-01T11:22:42.588Z,20.02
2022-11-01T11:25:16.291Z,19.57
2022-11-01T11:27:45.617Z,19.71
2022-11-01T11:30:25.679Z,20.21
2022-11-01T11:32:53.322Z,19.72
2022-11-01T11:35:21.978Z,19.50
2022-11-01T11:37:56.171Z,19.05
2022-11-01T11:40:25.438Z,19.88
2022-11-01T11:42:54.336Z,20.15
2022-11-01T11:45:26.914Z,19.84
2022-11-01T11:47:54.779Z,20.14
2022-11-01T11:50:30.803Z,18.88
2022-11-01T11:53:02.762Z,18.30
2022-11-01T11:55:37.165Z,18.21
2022-11-01T11:58:14.472Z,17.91
2022-11-01T12:00:47.240Z,17.98
2022-11-01T12:03:15.000Z,17.61
2022-11-01T12:05:52.583Z,17.77
2022-11-01T12:08:35.779Z,18.76
2022-11-01T12:11:04.022Z,18.19
2022-11-01T12:13:34.483Z,17.97
2022-11-01T12:16:15.061Z,17.83
2022-11-01T12:18:50.990Z,17.73
2022-11-01T12:21:21.969Z,17.53
2022-11-01T12:23:55.143Z,17.63
2022-11-01T12:26:23.566Z,18.46
2022-11-01T12:29:00.112Z,18.90
2022-11-01T12:31:31.447Z,18.57
2022-11-01T12:34:04.553Z,18.77
2022-11-01T12:36:35.971Z,19.49
2022-11-01T12:39:21.145Z,19.45
2022-11-01T12:41:53.866Z,19.43
2022-11-01T12:44:31.138Z,19.46
2022-11-01T12:47:04.181Z,19.48
2022-11-01T12:49:36.475Z,19.25
2022-11-01T12:52:10.897Z,19.86
2022-11-01T12:54:44.543Z,19.55
2022-11-01T12:57:14.246Z,19.05
2022-11-01T12:59:43.353Z,18.65
2022-11-01T13:02:45.327Z,19.15
2022-11-01T13:05:19.405Z,19.58
2022-11-01T13:07:58.894Z,19.63
2022-11-01T13:10:32.795Z,19.61
2022-11-01T13:13:11.323Z,19.73
2022-11-01T13:15:50.175Z,20.17
2022-11-01T13:18:26.899Z,19.64
2022-11-01T13:20:59.305Z,19.59
2022-11-01T13:23:32.530Z,20.16
2022-11-01T13:26:06.380Z,19.19
2022-11-01T13:29:02.590Z,18.79
2022-11-01T13:31:43.803Z,18.93
2022-11-01T13:34:28.238Z,18.82
2022-11-01T13:37:04.821Z,18.97
2022-11-01T13:39:42.281Z,18.56
2022-11-01T13:42:13.808Z,18.52
2022-11-01T13:44:44.838Z,18.66
2022-11-01T13:47:28.387Z,18.96
2022-11-01T13:50:26.730Z,19.17
2022-11-01T13:53:00.124Z,18.99
2022-11-01T13:55:33.985Z,19.04
2022-11-01T13:58:04.964Z,19.55
2022-11-01T14:00:42.545Z,19.58
2022-11-01T14:03:25.362Z,19.67
2022-11-01T14:06:26.945Z,19.73
2022-11-01T14:09:27.855Z,19.51
2022-11-01T14:11:56.410Z,19.17
2022-11-01T14:14:52.439Z,19.05
2022-11-01T14:17:59.057Z,19.44
2022-11-01T14:20:46.327Z,19.21
2022-11-01T14:23:50.484Z,19.41
2022-11-01T14:26:49.137Z,19.36
2022-11-01T14:29:16.952Z,19.46
2022-11-01T14:31:50.185Z,19.50
2022-11-01T14:34:28.148Z,19.54
2022-11-01T14:37:00.284Z,18.98
2022-11-01T14:39:34.557Z,18.79
2022-11-01T14:42:04.845Z,19.11
2022-11-01T14:44:37.342Z,19.05
2022-11-01T14:47:18.566Z,18.94
2022-11-01T14:49:45.825Z,19.13
2022-11-01T14:52:19.092Z,18.87
2022-11-01T14:54:50.683Z,18.78
2022-11-01T14:57:21.075Z,18.82
2022-11-01T14:59:48.290Z,18.38
2022-11-01T15:02:17.600Z,18.35
2022-11-01T15:04:45.748Z,18.49
2022-11-01T15:07:19.092Z,18.39
2022-11-01T15:09:55.727Z,18.19
2022-11-01T15:12:25.629Z,18.08
2022-11-01T15:14:55.685Z,17.94
2022-11-01T15:17:27.103Z,18.01
2022-11-01T15:19:55.970Z,17.82
2022-11-01T15:22:27.192Z,17.60
2022-11-01T15:24:57.708Z,17.89
2022-11-01T15:27:32.015Z,18.01
2022-11-01T15:29:59.373Z,17.57
2022-11-01T15:32:30.147Z,17.45
2022-11-01T15:34:59.087Z,17.27
2022-11-01T15:37:27.951Z,16.91
2022-11-01T15:39:55.581Z,16.71
2022-11-01T15:42:24.601Z,16.45
2022-11-01T15:44:51.879Z,16.29
2022-11-01T15:47:22.533Z,16.11
2022-11-01T15:49:56.193Z,16.08
2022-11-01T15:52:26.929Z,15.97
2022-11-01T15:54:57.475Z,15.85
2022-11-01T15:57:31.173Z,15.76
2022-11-01T16:00:02.454Z,15.73
2022-11-01T16:02:43.733Z,15.64
2022-11-01T16:05:18.907Z,15.59
2022-11-01T16:07:46.888Z,15.49
2022-11-01T16:10:18.934Z,15.56
2022-11-01T16:12:46.785Z,15.49
2022-11-01T16:15:22.431Z,15.37
2022-11-01T16:17:49.681Z,15.35
2022-11-01T16:20:31.561Z,15.27
2022-11-01T16:23:00.174Z,15.21
2022-11-01T16:25:29.670Z,15.19
2022-11-01T16:28:04.303Z,15.13
2022-11-01T16:30:44.406Z,15.05
2022-11-01T16:33:43.107Z,15.05
2022-11-01T16:36:33.261Z,14.93
2022-11-01T16:39:00.526Z,14.84
2022-11-01T16:41:37.884Z,14.78
2022-11-01T16:44:13.304Z,14.78
2022-11-01T16:46:40.716Z,14.79
2022-11-01T16:49:19.699Z,14.76
2022-11-01T16:51:48.749Z,14.63
2022-11-01T16:54:15.959Z,14.62
2022-11-01T16:56:45.505Z,14.60
2022-11-01T16:59:25.425Z,14.57
2022-11-01T17:01:54.391Z,14.50
2022-11-01T17:04:22.195Z,14.46
2022-11-01T17:06:50.925Z,14.42
2022-11-01T17:09:19.950Z,14.38
2022-11-01T17:11:51.127Z,14.35
2022-11-01T17:14:19.659Z,14.37
2022-11-01T17:16:49.939Z,14.27
2022-11-01T17:19:22.637Z,14.30
2022-11-01T17:21:52.040Z,14.27
2022-11-01T17:24:22.182Z,14.20
2022-11-01T17:26:53.717Z,14.17
2022-11-01T17:29:20.918Z,14.23
2022-11-01T17:31:48.102Z,14.17
2022-11-01T17:34:15.271Z,14.18
2022-11-01T17:36:47.144Z,14.14
2022-11-01T17:39:15.745Z,14.06
2022-11-01T17:41:42.987Z,14.03
2022-11-01T17:44:11.262Z,13.99
2022-11-01T17:46:38.505Z,13.88
2022-11-01T17:49:05.702Z,13.86
2022-11-01T17:51:32.939Z,13.83
2022-11-01T17:54:00.196Z,13.86
2022-11-01T17:56:28.781Z,13.86
2022-11-01T17:58:55.972Z,13.89
2022-11-01T18:01:23.244Z,13.94
2022-11-01T18:03:50.569Z,13.94
2022-11-01T18:06:17.896Z,13.87
2022-11-01T18:08:47.055Z,13.75
2022-11-01T18:11:31.163Z,13.77
2022-11-01T18:14:08.977Z,13.63
2022-11-01T18:16:45.719Z,13.64
2022-11-01T18:19:38.109Z,13.67
2022-11-01T18:22:13.184Z,13.67
2022-11-01T18:24:43.434Z,13.63
2022-11-01T18:27:12.508Z,13.58
2022-11-01T18:29:44.106Z,13.52
2022-11-01T18:32:19.744Z,13.45
2022-11-01T18:34:51.759Z,13.45
2022-11-01T18:37:26.555Z,13.44
2022-11-01T18:40:00.979Z,13.44
2022-11-01T18:42:28.365Z,13.39
2022-11-01T18:44:59.957Z,13.37
2022-11-01T18:47:32.606Z,13.40
2022-11-01T18:50:01.765Z,13.39
2022-11-01T18:52:29.053Z,13.44
2022-11-01T18:54:57.098Z,13.45
2022-11-01T18:57:27.702Z,13.46
2022-11-01T18:59:55.073Z,13.51
2022-11-01T19:02:25.251Z,13.52
2022-11-01T19:05:09.427Z,13.49
2022-11-01T19:08:04.902Z,13.42
2022-11-01T19:10:23.941Z,13.41
2022-11-01T19:12:52.363Z,13.40
2022-11-01T19:15:23.064Z,13.45
2022-11-01T19:17:57.177Z,13.33
2022-11-01T19:20:27.113Z,13.29
2022-11-01T19:22:56.593Z,13.24
2022-11-01T19:25:25.880Z,13.19
2022-11-01T19:27:55.994Z,13.12
2022-11-01T19:30:26.091Z,13.06
2022-11-01T19:32:57.964Z,12.94
2022-11-01T19:35:25.219Z,12.92
2022-11-01T19:37:54.305Z,12.87
2022-11-01T19:40:27.887Z,12.85
2022-11-01T19:42:58.820Z,12.81
2022-11-01T19:45:30.976Z,12.76
2022-11-01T19:48:01.260Z,12.73
2022-11-01T19:50:41.907Z,12.69
2022-11-01T19:53:20.552Z,12.67
2022-11-01T19:55:53.490Z,12.65
2022-11-01T19:58:27.175Z,12.51
2022-11-01T20:01:30.626Z,12.47
2022-11-01T20:04:00.830Z,12.48
2022-11-01T20:06:34.410Z,12.51
2022-11-01T20:09:04.201Z,12.44
2022-11-01T20:11:32.309Z,12.48
2022-11-01T20:13:59.864Z,12.55
2022-11-01T20:16:27.045Z,12.58
2022-11-01T20:18:54.423Z,12.48
2022-11-01T20:21:23.023Z,12.52
2022-11-01T20:23:50.288Z,12.50
2022-11-01T20:26:17.666Z,12.52
2022-11-01T20:28:44.897Z,12.50
2022-11-01T20:31:12.420Z,12.47
2022-11-01T20:33:39.720Z,12.54
2022-11-01T20:36:11.140Z,12.54
2022-11-01T20:38:40.585Z,12.58
2022-11-01T20:41:08.028Z,12.51
2022-11-01T20:43:35.575Z,12.46
2022-11-01T20:46:03.033Z,12.43
2022-11-01T20:48:30.434Z,12.46
2022-11-01T20:50:58.053Z,12.45
2022-11-01T20:53:29.490Z,12.44
2022-11-01T20:55:58.870Z,12.45
2022-11-01T20:58:26.667Z,12.40
2022-11-01T21:00:54.086Z,12.47
2022-11-01T21:03:23.054Z,12.48
2022-11-01T21:05:51.590Z,12.43
2022-11-01T21:08:22.505Z,12.42
2022-11-01T21:10:56.352Z,12.44
2022-11-01T21:13:29.014Z,12.44
2022-11-01T21:15:58.240Z,12.43
2022-11-01T21:18:37.349Z,12.47
2022-11-01T21:21:28.683Z,12.43
2022-11-01T21:23:57.725Z,12.39
2022-11-01T21:26:30.117Z,12.36
2022-11-01T21:29:03.336Z,12.36
2022-11-01T21:31:32.967Z,12.37
2022-11-01T21:34:04.337Z,12.37
2022-11-01T21:36:34.928Z,12.45
2022-11-01T21:39:09.763Z,12.43
2022-11-01T21:41:43.609Z,12.44
2022-11-01T21:44:21.132Z,12.45
2022-11-01T21:46:56.559Z,12.44
2022-11-01T21:49:26.863Z,12.38
2022-11-01T21:51:56.085Z,12.40
2022-11-01T21:54:23.372Z,12.46
2022-11-01T21:56:50.930Z,12.48
2022-11-01T21:59:20.837Z,12.41
2022-11-01T22:01:49.697Z,12.35
2022-11-01T22:04:17.939Z,12.29
2022-11-01T22:06:45.753Z,12.29
2022-11-01T22:09:14.141Z,12.29
2022-11-01T22:11:41.873Z,12.28
2022-11-01T22:14:09.510Z,12.25
2022-11-01T22:16:38.936Z,12.25
2022-11-01T22:19:06.946Z,12.20
2022-11-01T22:21:34.472Z,12.20
2022-11-01T22:24:02.257Z,12.21
2022-11-01T22:26:29.727Z,12.24
2022-11-01T22:28:57.117Z,12.19
2022-11-01T22:31:24.397Z,12.25
2022-11-01T22:33:54.359Z,12.22
2022-11-01T22:36:24.263Z,12.17
2022-11-01T22:38:54.016Z,12.19
2022-11-01T22:41:28.370Z,12.13
2022-11-01T22:44:02.246Z,12.21
2022-11-01T22:46:36.187Z,12.25
2022-11-01T22:49:11.782Z,12.29
2022-11-01T22:51:42.917Z,12.32
2022-11-01T22:54:29.616Z,12.38
2022-11-01T22:57:01.105Z,12.36
2022-11-01T22:59:33.543Z,12.45
2022-11-01T23:02:22.289Z,12.44
2022-11-01T23:04:58.043Z,12.40
2022-11-01T23:07:32.990Z,12.38
2022-11-01T23:10:00.732Z,12.37
2022-11-01T23:12:27.906Z,12.34
2022-11-01T23:14:55.027Z,12.40
2022-11-01T23:17:25.279Z,12.40
2022-11-01T23:19:57.708Z,12.38
2022-11-01T23:22:29.812Z,12.41
2022-11-01T23:24:57.797Z,12.52
2022-11-01T23:27:26.994Z,12.53
2022-11-01T23:29:55.634Z,12.53
2022-11-01T23:32:23.750Z,12.64
2022-11-01T23:34:58.249Z,12.63
2022-11-01T23:37:26.890Z,12.64
2022-11-01T23:39:54.131Z,12.58
2022-11-01T23:42:24.972Z,12.64
2022-11-01T23:44:55.647Z,12.76
2022-11-01T23:47:29.207Z,12.74
2022-11-01T23:50:02.531Z,12.71
2022-11-01T23:52:39.489Z,12.71
2022-11-01T23:55:16.055Z,12.71
2022-11-01T23:57:43.299Z,12.75
